Map

Track Data

SID SEASON NUMBER BASIN SUBBASIN NAME ISO_TIME NATURE LAT LON WMO_WIND WMO_PRES WMO_AGENCY TRACK_TYPE DIST2LAND LANDFALL IFLAG USA_AGENCY USA_ATCF_ID USA_LAT USA_LON USA_RECORD USA_STATUS USA_WIND USA_PRES USA_SSHS USA_R34_NE USA_R34_SE USA_R34_SW USA_R34_NW USA_R50_NE USA_R50_SE USA_R50_SW USA_R50_NW USA_R64_NE USA_R64_SE USA_R64_SW USA_R64_NW USA_POCI USA_ROCI USA_RMW USA_EYE TOKYO_LAT TOKYO_LON TOKYO_GRADE TOKYO_WIND TOKYO_PRES TOKYO_R50_DIR TOKYO_R50_LONG TOKYO_R50_SHORT TOKYO_R30_DIR TOKYO_R30_LONG TOKYO_R30_SHORT TOKYO_LAND CMA_LAT CMA_LON CMA_CAT CMA_WIND CMA_PRES HKO_LAT HKO_LON HKO_CAT HKO_WIND HKO_PRES NEWDELHI_LAT NEWDELHI_LON NEWDELHI_GRADE NEWDELHI_WIND NEWDELHI_PRES NEWDELHI_CI NEWDELHI_DP NEWDELHI_POCI REUNION_LAT REUNION_LON REUNION_TYPE REUNION_WIND REUNION_PRES REUNION_TNUM REUNION_CI REUNION_RMW REUNION_R34_NE REUNION_R34_SE REUNION_R34_SW REUNION_R34_NW REUNION_R50_NE REUNION_R50_SE REUNION_R50_SW REUNION_R50_NW REUNION_R64_NE REUNION_R64_SE REUNION_R64_SW REUNION_R64_NW BOM_LAT BOM_LON BOM_TYPE BOM_WIND BOM_PRES BOM_TNUM BOM_CI BOM_RMW BOM_R34_NE BOM_R34_SE BOM_R34_SW BOM_R34_NW BOM_R50_NE BOM_R50_SE BOM_R50_SW BOM_R50_NW BOM_R64_NE BOM_R64_SE BOM_R64_SW BOM_R64_NW BOM_ROCI BOM_POCI BOM_EYE BOM_POS_METHOD BOM_PRES_METHOD NADI_LAT NADI_LON NADI_CAT NADI_WIND NADI_PRES WELLINGTON_LAT WELLINGTON_LON WELLINGTON_WIND WELLINGTON_PRES DS824_LAT DS824_LON DS824_STAGE DS824_WIND DS824_PRES TD9636_LAT TD9636_LON TD9636_STAGE TD9636_WIND TD9636_PRES TD9635_LAT TD9635_LON TD9635_WIND TD9635_PRES TD9635_ROCI NEUMANN_LAT NEUMANN_LON NEUMANN_CLASS NEUMANN_WIND NEUMANN_PRES MLC_LAT MLC_LON MLC_CLASS MLC_WIND MLC_PRES USA_GUST BOM_GUST BOM_GUST_PER REUNION_GUST REUNION_GUST_PER USA_SEAHGT USA_SEARAD_NE USA_SEARAD_SE USA_SEARAD_SW USA_SEARAD_NW STORM_SPEED STORM_DIR
1922099S15066 1922 25 SI MM NOT_NAMED 1922-04-09 00:00:00 TS -14.6000 66.3000 main 1100 1087 _________O____ -1 -14.6000 66.3000 TC 25 4 170
1922099S15066 1922 25 SI MM NOT_NAMED 1922-04-09 03:00:00 TS -14.8025 66.3400 main 1087 1084 _________P____ -1 -14.8025 66.3400 TC 25 4 167
1922099S15066 1922 25 SI MM NOT_NAMED 1922-04-09 06:00:00 TS -15.0000 66.4000 main 1084 1078 _________O____ -1 -15.0000 66.4000 TC 25 4 159
1922099S15066 1922 25 SI MM NOT_NAMED 1922-04-09 09:00:00 TS -15.1925 66.4925 main 1081 1075 _________P____ -1 -15.1925 66.4925 TC 25 4 154
1922099S15066 1922 25 SI MM NOT_NAMED 1922-04-09 12:00:00 TS -15.4000 66.6000 main 1079 1073 _________O____ -1 -15.4000 66.6000 TC 25 5 156
1922099S15066 1922 25 SI MM NOT_NAMED 1922-04-09 15:00:00 TS -15.6500 66.7000 main 1077 1066 _________P____ -1 -15.6500 66.7000 TC 25 5 159
1922099S15066 1922 25 SI MM NOT_NAMED 1922-04-09 18:00:00 TS -15.9000 66.8000 main 1070 1065 _________O____ -1 -15.9000 66.8000 TC 25 5 157
1922099S15066 1922 25 SI MM NOT_NAMED 1922-04-09 21:00:00 TS -16.0850 66.8926 main 1069 1064 _________P____ -1 -16.0850 66.8926 TC 25 4 154
1922099S15066 1922 25 SI MM NOT_NAMED 1922-04-10 00:00:00 TS -16.3000 67.0000 main 1069 1064 _________O____ -1 -16.3000 67.0000 TC 25 6 156
1922099S15066 1922 25 SI MM NOT_NAMED 1922-04-10 03:00:00 TS -16.6350 67.1425 main 1064 1060 _________P____ -1 -16.6350 67.1425 TC 25 8 158
1922099S15066 1922 25 SI MM NOT_NAMED 1922-04-10 06:00:00 TS -17.0000 67.3000 main 1066 1062 _________O____ -1 -17.0000 67.3000 TC 25 7 156
1922099S15066 1922 25 SI MM NOT_NAMED 1922-04-10 09:00:00 TS -17.3000 67.4501 main 1074 1067 _________P____ -1 -17.3000 67.4501 TC 25 7 155
1922099S15066 1922 25 SI MM NOT_NAMED 1922-04-10 12:00:00 TS -17.6000 67.6000 main 1073 1070 _________O____ -1 -17.6000 67.6000 TC 25 7 157
1922099S15066 1922 25 SI MM NOT_NAMED 1922-04-10 15:00:00 TS -17.9500 67.7426 main 1074 1074 _________P____ -1 -17.9500 67.7426 TC 25 8 158
1922099S15066 1922 25 SI MM NOT_NAMED 1922-04-10 18:00:00 TS -18.3000 67.9000 main 1083 1080 _________O____ -1 -18.3000 67.9000 TC 25 7 153
1922099S15066 1922 25 SI MM NOT_NAMED 1922-04-10 21:00:00 TS -18.6075 68.1000 main 1096 1094 _________P____ -1 -18.6075 68.1000 TC 25 7 148
1922099S15066 1922 25 SI MM NOT_NAMED 1922-04-11 00:00:00 TS -18.9000 68.3000 main 1110 1108 _________O____ -1 -18.9000 68.3000 TC 25 7 151
1922099S15066 1922 25 SI MM NOT_NAMED 1922-04-11 03:00:00 TS -19.2074 68.4501 main 1126 1123 _________P____ -1 -19.2074 68.4501 TC 25 7 155
1922099S15066 1922 25 SI MM NOT_NAMED 1922-04-11 06:00:00 TS -19.5000 68.6000 main 1132 1131 _________O____ -1 -19.5000 68.6000 TC 25 6 150
1922099S15066 1922 25 SI MM NOT_NAMED 1922-04-11 09:00:00 TS -19.7575 68.7925 main 1150 1150 _________P____ -1 -19.7575 68.7925 TC 25 6 143
1922099S15066 1922 25 SI MM NOT_NAMED 1922-04-11 12:00:00 TS -20.0000 69.0000 main 1169 1168 _________O____ -1 -20.0000 69.0000 TC 25 6 143
1922099S15066 1922 25 SI MM NOT_NAMED 1922-04-11 15:00:00 TS -20.2499 69.1926 main 1188 1188 _________P____ -1 -20.2499 69.1926 TC 25 6 143
1922099S15066 1922 25 SI MM NOT_NAMED 1922-04-11 18:00:00 TS -20.5000 69.4000 main 1208 1208 _________O____ -1 -20.5000 69.4000 TC 25 7 140
1922099S15066 1922 25 SI MM NOT_NAMED 1922-04-11 21:00:00 TS -20.7501 69.6398 main 1229 1229 _________P____ -1 -20.7501 69.6398 TC 25 7 137
1922099S15066 1922 25 SI MM NOT_NAMED 1922-04-12 00:00:00 TS -21.0000 69.9000 main 1260 _________O____ -1 -21.0000 69.9000 TC 25 7 136

About IBTrACS Database

This database is a web-friendly format of International Best Track Archive for Climate Stewardship (IBTrACS), a global best track data archive curated by NOAA dating back to 1842.

Updated: 2021-10-21